createdAt,value
2022-09-11T00:02:40.418Z,17.00
2022-09-11T00:05:29.588Z,17.00
2022-09-11T00:08:21.256Z,17.00
2022-09-11T00:11:17.453Z,17.00
2022-09-11T00:14:05.904Z,17.00
2022-09-11T00:16:54.054Z,17.00
2022-09-11T00:19:42.764Z,17.00
2022-09-11T00:22:30.948Z,17.00
2022-09-11T00:25:19.081Z,17.00
2022-09-11T00:28:08.726Z,17.10
2022-09-11T00:31:01.585Z,17.00
2022-09-11T00:33:50.111Z,17.10
2022-09-11T00:36:41.363Z,17.00
2022-09-11T00:39:29.561Z,17.00
2022-09-11T00:42:17.698Z,17.00
2022-09-11T00:45:09.075Z,17.00
2022-09-11T00:48:00.607Z,17.00
2022-09-11T00:50:50.708Z,17.00
2022-09-11T00:53:39.441Z,17.00
2022-09-11T00:56:31.660Z,17.00
2022-09-11T00:59:25.216Z,17.00
2022-09-11T01:02:23.220Z,17.00
2022-09-11T01:05:16.436Z,16.90
2022-09-11T01:08:04.722Z,16.80
2022-09-11T01:11:03.347Z,16.80
2022-09-11T01:13:57.879Z,16.80
2022-09-11T01:16:53.251Z,16.80
2022-09-11T01:19:57.921Z,16.70
2022-09-11T01:22:59.855Z,16.70
2022-09-11T01:26:07.878Z,16.70
2022-09-11T01:29:03.214Z,16.70
2022-09-11T01:31:58.167Z,16.60
2022-09-11T01:34:52.707Z,16.60
2022-09-11T01:37:47.726Z,16.60
2022-09-11T01:40:45.892Z,16.60
2022-09-11T01:43:36.970Z,16.50
2022-09-11T01:46:29.005Z,16.40
2022-09-11T01:49:20.268Z,16.40
2022-09-11T01:52:13.840Z,16.40
2022-09-11T01:55:05.920Z,16.40
2022-09-11T01:57:57.436Z,16.40
2022-09-11T02:00:50.338Z,16.30
2022-09-11T02:03:43.107Z,16.30
2022-09-11T02:06:35.474Z,16.30
2022-09-11T02:09:27.530Z,16.20
2022-09-11T02:12:18.061Z,16.20
2022-09-11T02:15:06.997Z,16.20
2022-09-11T02:18:01.842Z,16.10
2022-09-11T02:20:52.840Z,16.10
2022-09-11T02:23:41.348Z,16.10
2022-09-11T02:26:33.195Z,16.00
2022-09-11T02:29:22.118Z,15.80
2022-09-11T02:32:10.896Z,15.80
2022-09-11T02:34:59.548Z,15.80
2022-09-11T02:37:56.127Z,15.80
2022-09-11T02:40:53.100Z,15.70
2022-09-11T02:43:51.243Z,15.70
2022-09-11T02:46:55.403Z,15.70
2022-09-11T02:49:55.784Z,15.60
2022-09-11T02:52:54.966Z,15.50
2022-09-11T02:55:54.379Z,15.40
2022-09-11T02:58:47.875Z,15.40
2022-09-11T03:01:48.250Z,15.30
2022-09-11T03:04:37.260Z,15.20
2022-09-11T03:07:25.986Z,15.20
2022-09-11T03:10:15.661Z,15.20
2022-09-11T03:13:03.823Z,15.20
2022-09-11T03:15:52.008Z,15.10
2022-09-11T03:18:40.433Z,15.20
2022-09-11T03:21:28.561Z,15.20
2022-09-11T03:24:17.147Z,15.20
2022-09-11T03:27:06.945Z,15.20
2022-09-11T03:29:56.263Z,15.20
2022-09-11T03:32:44.387Z,15.10
2022-09-11T03:35:32.549Z,15.20
2022-09-11T03:38:20.911Z,15.20
2022-09-11T03:41:09.466Z,15.20
2022-09-11T03:43:58.952Z,15.20
2022-09-11T03:46:47.121Z,15.20
2022-09-11T03:49:35.387Z,15.30
2022-09-11T03:52:23.558Z,15.30
2022-09-11T03:55:12.373Z,15.30
2022-09-11T03:58:00.973Z,15.30
2022-09-11T04:00:50.583Z,15.30
2022-09-11T04:03:38.909Z,15.20
2022-09-11T04:06:27.108Z,15.20
2022-09-11T04:09:15.367Z,15.20
2022-09-11T04:12:03.852Z,15.20
2022-09-11T04:14:52.115Z,15.20
2022-09-11T04:17:41.908Z,15.20
2022-09-11T04:20:30.100Z,15.20
2022-09-11T04:23:18.256Z,15.30
2022-09-11T04:26:15.897Z,15.30
2022-09-11T04:29:04.126Z,15.30
2022-09-11T04:31:52.291Z,15.30
2022-09-11T04:34:42.200Z,15.30
2022-09-11T04:37:30.385Z,15.30
2022-09-11T04:40:18.633Z,15.30
2022-09-11T04:43:08.002Z,15.30
2022-09-11T04:46:01.654Z,15.30
2022-09-11T04:48:52.613Z,15.40
2022-09-11T04:51:42.002Z,15.40
2022-09-11T04:54:30.250Z,15.40
2022-09-11T04:57:18.387Z,15.40
2022-09-11T05:00:08.235Z,15.40
2022-09-11T05:02:56.344Z,15.40
2022-09-11T05:05:44.487Z,15.40
2022-09-11T05:08:34.460Z,15.40
2022-09-11T05:11:22.808Z,15.40
2022-09-11T05:14:11.673Z,15.40
2022-09-11T05:17:01.513Z,15.30
2022-09-11T05:19:49.733Z,15.20
2022-09-11T05:22:37.876Z,15.20
2022-09-11T05:25:29.974Z,15.10
2022-09-11T05:28:18.123Z,15.10
2022-09-11T05:31:12.353Z,15.10
2022-09-11T05:34:01.360Z,15.20
2022-09-11T05:36:49.526Z,15.10
2022-09-11T05:39:37.778Z,15.20
2022-09-11T05:42:28.640Z,15.10
2022-09-11T05:45:16.973Z,15.20
2022-09-11T05:48:05.369Z,15.20
2022-09-11T05:50:54.037Z,15.30
2022-09-11T05:53:42.675Z,15.30
2022-09-11T05:56:31.469Z,15.30
2022-09-11T05:59:20.981Z,15.50
2022-09-11T06:02:11.634Z,15.50
2022-09-11T06:04:59.839Z,15.50
2022-09-11T06:07:47.991Z,15.60
2022-09-11T06:10:36.452Z,15.60
2022-09-11T06:13:24.747Z,15.60
2022-09-11T06:16:18.524Z,15.70
2022-09-11T06:19:07.665Z,15.70
2022-09-11T06:21:56.415Z,15.70
2022-09-11T06:24:47.513Z,15.70
2022-09-11T06:27:35.729Z,15.70
2022-09-11T06:30:23.877Z,15.80
2022-09-11T06:33:13.381Z,15.80
2022-09-11T06:36:03.983Z,15.90
2022-09-11T06:38:54.838Z,15.90
2022-09-11T06:41:43.877Z,15.90
2022-09-11T06:44:32.027Z,16.00
2022-09-11T06:47:20.777Z,16.00
2022-09-11T06:50:11.815Z,16.00
2022-09-11T06:52:59.985Z,16.10
2022-09-11T06:55:48.119Z,16.10
2022-09-11T06:58:36.531Z,16.20
2022-09-11T07:01:24.828Z,16.20
2022-09-11T07:04:13.080Z,16.20
2022-09-11T07:07:02.689Z,16.20
2022-09-11T07:09:50.861Z,16.20
2022-09-11T07:12:39.781Z,16.20
2022-09-11T07:15:27.958Z,16.30
2022-09-11T07:18:16.199Z,16.30
2022-09-11T07:21:08.253Z,16.30
2022-09-11T07:23:59.346Z,16.30
2022-09-11T07:26:47.500Z,16.30
2022-09-11T07:29:35.645Z,16.40
2022-09-11T07:32:24.016Z,16.40
2022-09-11T07:35:12.859Z,16.40
2022-09-11T07:38:01.012Z,16.40
2022-09-11T07:40:54.254Z,16.30
2022-09-11T07:43:45.538Z,16.30
2022-09-11T07:46:33.736Z,16.40
2022-09-11T07:49:21.911Z,16.40
2022-09-11T07:52:12.613Z,16.30
2022-09-11T07:55:04.577Z,16.30
2022-09-11T07:57:54.873Z,16.20
2022-09-11T08:00:42.962Z,16.20
2022-09-11T08:03:31.465Z,16.20
2022-09-11T08:06:22.513Z,16.20
2022-09-11T08:09:13.074Z,16.20
2022-09-11T08:12:02.056Z,16.30
2022-09-11T08:14:51.547Z,16.50
2022-09-11T08:17:39.743Z,16.70
2022-09-11T08:20:27.917Z,16.80
2022-09-11T08:23:16.452Z,16.90
2022-09-11T08:26:06.553Z,16.90
2022-09-11T08:28:56.452Z,17.00
2022-09-11T08:31:46.748Z,17.10
2022-09-11T08:34:35.082Z,17.20
2022-09-11T08:37:23.425Z,17.30
2022-09-11T08:40:11.951Z,17.30
2022-09-11T08:43:03.682Z,17.40
2022-09-11T08:45:56.408Z,17.50
2022-09-11T08:48:53.126Z,17.50
2022-09-11T08:51:41.548Z,17.50
2022-09-11T08:54:33.463Z,17.50
2022-09-11T08:57:28.960Z,17.60
2022-09-11T09:00:21.516Z,17.60
2022-09-11T09:03:37.045Z,17.60
2022-09-11T09:06:41.002Z,17.60
2022-09-11T09:09:39.569Z,17.60
2022-09-11T09:12:36.686Z,17.70
2022-09-11T09:15:34.450Z,17.70
2022-09-11T09:18:28.895Z,17.70
2022-09-11T09:21:25.071Z,17.80
2022-09-11T09:24:20.581Z,17.80
2022-09-11T09:27:16.142Z,17.80
2022-09-11T09:30:07.789Z,17.90
2022-09-11T09:33:01.042Z,18.00
2022-09-11T09:35:52.320Z,18.10
2022-09-11T09:38:41.440Z,18.20
2022-09-11T09:42:06.041Z,18.20
2022-09-11T09:45:03.578Z,18.40
2022-09-11T09:47:51.989Z,18.40
2022-09-11T09:50:43.998Z,18.50
2022-09-11T09:53:40.800Z,18.50
2022-09-11T09:56:31.639Z,18.50
2022-09-11T09:59:22.847Z,18.50
2022-09-11T10:02:12.196Z,18.50
2022-09-11T10:05:16.938Z,18.50
2022-09-11T10:08:06.982Z,18.60
2022-09-11T10:10:58.032Z,18.70
2022-09-11T10:13:55.360Z,18.90
2022-09-11T10:16:50.243Z,19.00
2022-09-11T10:19:41.588Z,19.10
2022-09-11T10:22:32.357Z,19.20
2022-09-11T10:25:21.842Z,19.20
2022-09-11T10:28:15.096Z,19.20
2022-09-11T10:31:05.324Z,19.20
2022-09-11T10:33:57.324Z,19.30
2022-09-11T10:36:54.005Z,19.30
2022-09-11T10:39:45.002Z,19.40
2022-09-11T10:42:37.810Z,19.30
2022-09-11T10:45:26.639Z,19.30
2022-09-11T10:48:24.057Z,19.50
2022-09-11T10:51:14.079Z,19.80
2022-09-11T10:54:15.667Z,19.90
2022-09-11T10:57:13.268Z,19.90
2022-09-11T11:00:07.980Z,19.90
2022-09-11T11:02:58.806Z,19.80
2022-09-11T11:05:51.619Z,19.80
2022-09-11T11:09:05.421Z,19.90
2022-09-11T11:12:10.869Z,19.90
2022-09-11T11:15:13.716Z,20.10
2022-09-11T11:18:31.373Z,20.20
2022-09-11T11:21:32.602Z,20.40
2022-09-11T11:24:38.180Z,20.60
2022-09-11T11:28:02.072Z,20.90
2022-09-11T11:31:00.917Z,21.10
2022-09-11T11:34:14.208Z,21.30
2022-09-11T11:37:07.518Z,21.50
2022-09-11T11:40:01.205Z,21.40
2022-09-11T11:42:56.363Z,21.30
2022-09-11T11:45:47.919Z,21.10
2022-09-11T11:48:45.115Z,21.10
2022-09-11T11:51:39.810Z,21.30
2022-09-11T11:54:34.060Z,21.50
2022-09-11T11:57:27.496Z,21.60
2022-09-11T12:00:19.242Z,21.70
2022-09-11T12:03:16.353Z,21.80
2022-09-11T12:06:07.539Z,21.70
2022-09-11T12:08:56.396Z,21.80
2022-09-11T12:11:47.545Z,22.00
2022-09-11T12:14:38.417Z,22.20
2022-09-11T12:17:29.830Z,22.00
2022-09-11T12:20:37.194Z,22.00
2022-09-11T12:23:35.521Z,22.10
2022-09-11T12:26:26.263Z,22.10
2022-09-11T12:29:51.745Z,22.20
2022-09-11T12:32:46.711Z,22.40
2022-09-11T12:35:43.764Z,22.50
2022-09-11T12:38:41.502Z,22.60
2022-09-11T12:41:31.716Z,22.70
2022-09-11T12:44:54.332Z,22.70
2022-09-11T12:47:45.046Z,22.60
2022-09-11T12:50:33.758Z,22.60
2022-09-11T12:53:25.620Z,22.60
2022-09-11T12:56:20.311Z,22.70
2022-09-11T12:59:11.016Z,22.90
2022-09-11T13:01:59.509Z,23.00
2022-09-11T13:04:49.602Z,22.80
2022-09-11T13:07:43.588Z,22.70
2022-09-11T13:10:35.156Z,22.60
2022-09-11T13:13:44.539Z,22.30
2022-09-11T13:16:34.893Z,22.40
2022-09-11T13:19:23.765Z,22.40
2022-09-11T13:22:27.937Z,22.60
2022-09-11T13:25:18.183Z,22.70
2022-09-11T13:28:07.774Z,23.00
2022-09-11T13:31:00.424Z,23.10
2022-09-11T13:33:50.891Z,23.20
2022-09-11T13:36:40.640Z,23.40
2022-09-11T13:39:40.917Z,23.50
2022-09-11T13:42:29.702Z,23.30
2022-09-11T13:45:20.203Z,23.20
2022-09-11T13:48:14.210Z,23.30
2022-09-11T13:51:04.993Z,23.50
2022-09-11T13:53:59.366Z,23.70
2022-09-11T13:57:13.216Z,23.70
2022-09-11T14:00:01.779Z,23.70
2022-09-11T14:02:52.576Z,23.80
2022-09-11T14:05:49.484Z,23.90
2022-09-11T14:08:40.874Z,24.00
2022-09-11T14:11:31.772Z,24.10
2022-09-11T14:14:26.273Z,24.00
2022-09-11T14:17:17.186Z,24.10
2022-09-11T14:20:06.028Z,24.30
2022-09-11T14:22:56.544Z,24.40
2022-09-11T14:25:59.787Z,24.60
2022-09-11T14:29:01.427Z,24.60
2022-09-11T14:31:52.067Z,24.70
2022-09-11T14:34:40.200Z,24.50
2022-09-11T14:37:31.247Z,24.30
2022-09-11T14:40:21.169Z,23.80
2022-09-11T14:43:11.924Z,23.20
2022-09-11T14:46:01.416Z,22.70
2022-09-11T14:48:51.429Z,22.30
2022-09-11T14:51:40.783Z,22.00
2022-09-11T14:54:32.022Z,21.90
2022-09-11T14:57:22.869Z,21.70
2022-09-11T15:00:14.612Z,21.60
2022-09-11T15:03:04.144Z,21.50
2022-09-11T15:05:56.430Z,21.50
2022-09-11T15:08:45.859Z,21.40
2022-09-11T15:11:37.497Z,21.20
2022-09-11T15:14:52.366Z,21.20
2022-09-11T15:17:36.378Z,21.10
2022-09-11T15:20:27.613Z,21.10
2022-09-11T15:23:17.480Z,21.20
2022-09-11T15:26:08.274Z,21.30
2022-09-11T15:28:56.762Z,21.50
2022-09-11T15:31:44.921Z,21.60
2022-09-11T15:34:33.245Z,21.50
2022-09-11T15:37:21.561Z,21.50
2022-09-11T15:40:11.792Z,21.60
2022-09-11T15:43:00.010Z,21.90
2022-09-11T15:45:48.253Z,22.20
2022-09-11T15:48:40.126Z,22.50
2022-09-11T15:51:28.330Z,22.70
2022-09-11T15:54:16.703Z,22.60
2022-09-11T15:57:06.814Z,22.50
2022-09-11T15:59:55.074Z,22.30
2022-09-11T16:02:43.323Z,22.30
2022-09-11T16:05:32.448Z,22.30
2022-09-11T16:08:22.118Z,22.20
2022-09-11T16:11:11.990Z,22.00
2022-09-11T16:14:02.141Z,21.70
2022-09-11T16:16:50.763Z,21.60
2022-09-11T16:19:39.456Z,21.40
2022-09-11T16:22:31.268Z,21.70
2022-09-11T16:25:20.557Z,22.00
2022-09-11T16:28:09.480Z,22.20
2022-09-11T16:30:59.035Z,22.30
2022-09-11T16:33:48.639Z,22.40
2022-09-11T16:36:38.759Z,22.50
2022-09-11T16:39:27.501Z,22.50
2022-09-11T16:42:15.656Z,22.60
2022-09-11T16:45:03.932Z,22.70
2022-09-11T16:47:53.410Z,22.60
2022-09-11T16:50:41.533Z,22.40
2022-09-11T16:53:32.864Z,22.00
2022-09-11T16:56:23.197Z,21.70
2022-09-11T16:59:11.340Z,21.40
2022-09-11T17:02:00.214Z,21.10
2022-09-11T17:04:49.898Z,20.90
2022-09-11T17:07:38.621Z,20.70
2022-09-11T17:10:26.739Z,20.60
2022-09-11T17:13:15.199Z,20.40
2022-09-11T17:16:04.198Z,20.30
2022-09-11T17:18:54.483Z,20.10
2022-09-11T17:21:43.941Z,20.00
2022-09-11T17:24:32.094Z,19.90
2022-09-11T17:27:20.232Z,19.80
2022-09-11T17:30:09.630Z,19.70
2022-09-11T17:32:58.109Z,19.60
2022-09-11T17:35:46.979Z,19.60
2022-09-11T17:38:36.738Z,19.60
2022-09-11T17:41:24.943Z,19.60
2022-09-11T17:44:14.055Z,19.60
2022-09-11T17:47:02.576Z,19.50
2022-09-11T17:49:50.912Z,19.50
2022-09-11T17:52:39.045Z,19.40
2022-09-11T17:55:29.503Z,19.30
2022-09-11T17:58:17.645Z,19.30
2022-09-11T18:01:07.398Z,19.20
2022-09-11T18:03:56.933Z,19.10
2022-09-11T18:06:45.452Z,19.10
2022-09-11T18:09:33.802Z,19.00
2022-09-11T18:12:25.784Z,18.90
2022-09-11T18:15:13.911Z,18.90
2022-09-11T18:18:02.202Z,18.80
2022-09-11T18:20:53.941Z,18.80
2022-09-11T18:23:44.194Z,18.80
2022-09-11T18:26:34.464Z,18.70
2022-09-11T18:29:23.970Z,18.60
2022-09-11T18:32:12.096Z,18.60
2022-09-11T18:35:00.354Z,18.60
2022-09-11T18:37:48.782Z,18.50
2022-09-11T18:40:37.014Z,18.50
2022-09-11T18:43:25.148Z,18.50
2022-09-11T18:46:14.714Z,18.40
2022-09-11T18:49:03.417Z,18.40
2022-09-11T18:51:51.929Z,18.30
2022-09-11T18:54:40.075Z,18.30
2022-09-11T18:57:28.672Z,18.20
2022-09-11T19:00:17.984Z,18.20
2022-09-11T19:03:07.467Z,18.20
2022-09-11T19:06:01.824Z,18.10
2022-09-11T19:08:51.176Z,18.10
2022-09-11T19:11:39.731Z,18.10
2022-09-11T19:14:27.927Z,18.10
2022-09-11T19:17:16.086Z,18.10
2022-09-11T19:20:08.024Z,18.10
2022-09-11T19:22:59.669Z,18.10
2022-09-11T19:25:50.255Z,18.10
2022-09-11T19:28:39.373Z,18.10
2022-09-11T19:31:29.519Z,18.10
2022-09-11T19:34:17.847Z,18.00
2022-09-11T19:37:11.976Z,18.00
2022-09-11T19:40:00.739Z,18.00
2022-09-11T19:42:49.067Z,18.00
2022-09-11T19:45:39.765Z,17.90
2022-09-11T19:48:27.985Z,17.90
2022-09-11T19:51:18.371Z,18.00
2022-09-11T19:54:08.421Z,17.90
2022-09-11T19:56:57.039Z,17.90
2022-09-11T19:59:45.183Z,17.90
2022-09-11T20:02:33.860Z,17.90
2022-09-11T20:05:22.502Z,17.80
2022-09-11T20:08:16.177Z,17.80
2022-09-11T20:11:08.286Z,17.80
2022-09-11T20:14:00.301Z,17.70
2022-09-11T20:16:55.341Z,17.70
2022-09-11T20:19:44.778Z,17.60
2022-09-11T20:22:32.894Z,17.60
2022-09-11T20:25:21.002Z,17.50
2022-09-11T20:28:10.594Z,17.50
2022-09-11T20:31:00.416Z,17.40
2022-09-11T20:33:49.540Z,17.30
2022-09-11T20:36:37.756Z,17.30
2022-09-11T20:39:25.871Z,17.20
2022-09-11T20:42:14.058Z,17.20
2022-09-11T20:45:03.622Z,17.10
2022-09-11T20:47:51.745Z,17.10
2022-09-11T20:50:39.902Z,17.10
2022-09-11T20:53:28.390Z,17.00
2022-09-11T20:56:20.315Z,16.90
2022-09-11T20:59:08.716Z,16.90
2022-09-11T21:01:58.241Z,16.90
2022-09-11T21:04:46.439Z,16.80
2022-09-11T21:07:34.693Z,16.80
2022-09-11T21:10:22.848Z,16.80
2022-09-11T21:13:11.796Z,16.70
2022-09-11T21:16:00.015Z,16.80
2022-09-11T21:18:52.051Z,16.70
2022-09-11T21:21:40.383Z,16.70
2022-09-11T21:24:28.669Z,16.60
2022-09-11T21:27:16.829Z,16.50
2022-09-11T21:30:05.760Z,16.40
2022-09-11T21:32:54.319Z,16.40
2022-09-11T21:35:44.169Z,16.40
2022-09-11T21:38:32.708Z,16.30
2022-09-11T21:41:21.184Z,16.10
2022-09-11T21:44:09.533Z,16.10
2022-09-11T21:46:57.720Z,16.00
2022-09-11T21:49:45.892Z,15.90
2022-09-11T21:52:35.944Z,15.90
2022-09-11T21:55:24.131Z,16.00
2022-09-11T21:58:16.372Z,15.90
2022-09-11T22:01:08.567Z,15.90
2022-09-11T22:03:56.957Z,15.80
2022-09-11T22:06:45.247Z,15.80
2022-09-11T22:09:35.423Z,15.70
2022-09-11T22:12:23.575Z,15.70
2022-09-11T22:15:12.328Z,15.60
2022-09-11T22:18:00.480Z,15.50
2022-09-11T22:20:49.622Z,15.50
2022-09-11T22:23:38.061Z,15.40
2022-09-11T22:26:30.103Z,15.50
2022-09-11T22:29:18.281Z,15.50
2022-09-11T22:32:07.185Z,15.60
2022-09-11T22:34:55.361Z,15.50
2022-09-11T22:37:43.504Z,15.40
2022-09-11T22:40:31.807Z,15.40
2022-09-11T22:43:21.579Z,15.50
2022-09-11T22:46:09.835Z,15.40
2022-09-11T22:48:58.000Z,15.50
2022-09-11T22:51:46.130Z,15.50
2022-09-11T22:54:34.264Z,15.50
2022-09-11T22:57:22.391Z,15.40
2022-09-11T23:00:14.661Z,15.40
2022-09-11T23:03:02.869Z,15.40
2022-09-11T23:06:13.755Z,15.30
2022-09-11T23:09:04.588Z,15.30
2022-09-11T23:11:52.688Z,15.20
2022-09-11T23:14:40.828Z,15.10
2022-09-11T23:17:30.277Z,15.00
2022-09-11T23:20:19.064Z,15.00
2022-09-11T23:23:07.191Z,15.10
2022-09-11T23:25:55.321Z,15.10
2022-09-11T23:28:44.069Z,15.10
2022-09-11T23:31:34.612Z,15.00
2022-09-11T23:34:24.147Z,15.10
2022-09-11T23:37:12.284Z,15.00
2022-09-11T23:40:00.486Z,15.00
2022-09-11T23:42:48.647Z,15.00
2022-09-11T23:45:36.820Z,14.90
2022-09-11T23:48:25.019Z,14.80
2022-09-11T23:51:15.614Z,14.80
2022-09-11T23:54:03.827Z,14.80
2022-09-11T23:56:51.925Z,14.80
2022-09-11T23:59:40.075Z,14.70
